sensor_id;sensor_type;location;lat;lon;timestamp;pressure;altitude;pressure_sealevel;temperature;humidity
72857;BME280;62742;52.136;4.500;2023-01-13T00:01:22;100315.22;;;8.43;76.42
72857;BME280;62742;52.136;4.500;2023-01-13T00:03:50;100319.63;;;8.40;76.10
72857;BME280;62742;52.136;4.500;2023-01-13T00:06:18;100324.03;;;8.36;76.92
72857;BME280;62742;52.136;4.500;2023-01-13T00:08:49;100335.50;;;8.29;76.70
72857;BME280;62742;52.136;4.500;2023-01-13T00:11:16;100332.03;;;8.29;77.16
72857;BME280;62742;52.136;4.500;2023-01-13T00:13:44;100335.34;;;8.37;77.81
72857;BME280;62742;52.136;4.500;2023-01-13T00:16:11;100319.63;;;8.38;77.51
72857;BME280;62742;52.136;4.500;2023-01-13T00:18:40;100322.31;;;8.35;77.90
72857;BME280;62742;52.136;4.500;2023-01-13T00:21:10;100323.13;;;8.39;78.07
72857;BME280;62742;52.136;4.500;2023-01-13T00:23:41;100312.34;;;8.60;78.12
72857;BME280;62742;52.136;4.500;2023-01-13T00:26:13;100321.91;;;8.63;79.62
72857;BME280;62742;52.136;4.500;2023-01-13T00:28:44;100313.34;;;8.53;80.04
72857;BME280;62742;52.136;4.500;2023-01-13T00:31:11;100306.34;;;8.54;80.61
72857;BME280;62742;52.136;4.500;2023-01-13T00:33:39;100307.91;;;8.64;79.90
72857;BME280;62742;52.136;4.500;2023-01-13T00:36:06;100305.28;;;8.64;80.04
72857;BME280;62742;52.136;4.500;2023-01-13T00:38:35;100288.91;;;8.54;80.16
72857;BME280;62742;52.136;4.500;2023-01-13T00:41:07;100297.50;;;8.63;79.30
72857;BME280;62742;52.136;4.500;2023-01-13T00:43:36;100302.63;;;8.67;79.99
72857;BME280;62742;52.136;4.500;2023-01-13T00:46:03;100292.28;;;8.61;80.56
72857;BME280;62742;52.136;4.500;2023-01-13T00:48:32;100287.88;;;8.63;80.55
72857;BME280;62742;52.136;4.500;2023-01-13T00:50:59;100279.22;;;8.59;81.13
72857;BME280;62742;52.136;4.500;2023-01-13T00:53:50;100257.25;;;8.67;80.83
72857;BME280;62742;52.136;4.500;2023-01-13T00:56:18;100271.19;;;8.69;81.04
72857;BME280;62742;52.136;4.500;2023-01-13T00:58:48;100280.09;;;8.58;81.51
72857;BME280;62742;52.136;4.500;2023-01-13T01:01:15;100266.22;;;8.52;81.44
72857;BME280;62742;52.136;4.500;2023-01-13T01:03:46;100269.59;;;8.60;80.99
72857;BME280;62742;52.136;4.500;2023-01-13T01:06:15;100261.09;;;8.46;81.14
72857;BME280;62742;52.136;4.500;2023-01-13T01:08:44;100266.38;;;8.42;81.10
72857;BME280;62742;52.136;4.500;2023-01-13T01:11:14;100281.31;;;8.34;80.88
72857;BME280;62742;52.136;4.500;2023-01-13T01:13:44;100282.97;;;8.38;80.25
72857;BME280;62742;52.136;4.500;2023-01-13T01:16:13;100283.63;;;8.56;79.26
72857;BME280;62742;52.136;4.500;2023-01-13T01:18:42;100288.97;;;8.48;79.52
72857;BME280;62742;52.136;4.500;2023-01-13T01:21:11;100290.78;;;8.45;79.23
72857;BME280;62742;52.136;4.500;2023-01-13T01:23:38;100291.75;;;8.36;80.23
72857;BME280;62742;52.136;4.500;2023-01-13T01:28:42;100289.09;;;8.40;80.65
72857;BME280;62742;52.136;4.500;2023-01-13T01:31:11;100285.38;;;8.54;79.99
72857;BME280;62742;52.136;4.500;2023-01-13T01:33:39;100289.94;;;8.42;80.86
72857;BME280;62742;52.136;4.500;2023-01-13T01:36:06;100279.22;;;8.58;79.32
72857;BME280;62742;52.136;4.500;2023-01-13T01:38:34;100275.53;;;8.70;78.58
72857;BME280;62742;52.136;4.500;2023-01-13T01:41:00;100274.88;;;8.55;79.04
72857;BME280;62742;52.136;4.500;2023-01-13T01:46:34;100275.22;;;8.35;80.04
72857;BME280;62742;52.136;4.500;2023-01-13T01:49:02;100282.97;;;8.40;79.92
72857;BME280;62742;52.136;4.500;2023-01-13T01:51:51;100261.75;;;8.58;78.60
72857;BME280;62742;52.136;4.500;2023-01-13T01:54:23;100270.81;;;8.37;79.62
72857;BME280;62742;52.136;4.500;2023-01-13T01:56:56;100268.19;;;8.37;79.23
72857;BME280;62742;52.136;4.500;2023-01-13T01:59:23;100264.63;;;8.43;79.15
72857;BME280;62742;52.136;4.500;2023-01-13T02:01:52;100261.81;;;8.54;78.07
72857;BME280;62742;52.136;4.500;2023-01-13T02:04:19;100256.28;;;8.72;77.86
72857;BME280;62742;52.136;4.500;2023-01-13T02:06:53;100253.00;;;8.61;78.43
72857;BME280;62742;52.136;4.500;2023-01-13T02:09:21;100260.88;;;8.59;78.69
72857;BME280;62742;52.136;4.500;2023-01-13T02:11:51;100249.44;;;8.64;78.23
72857;BME280;62742;52.136;4.500;2023-01-13T02:14:35;100239.28;;;8.42;79.31
72857;BME280;62742;52.136;4.500;2023-01-13T02:26:03;100239.13;;;8.56;79.36
72857;BME280;62742;52.136;4.500;2023-01-13T02:31:39;100221.59;;;8.59;79.93
72857;BME280;62742;52.136;4.500;2023-01-13T02:34:16;100229.47;;;8.58;79.98
72857;BME280;62742;52.136;4.500;2023-01-13T02:37:02;100238.06;;;8.66;79.86
72857;BME280;62742;52.136;4.500;2023-01-13T02:39:32;100229.19;;;8.73;79.36
72857;BME280;62742;52.136;4.500;2023-01-13T02:45:12;100224.69;;;8.82;79.33
72857;BME280;62742;52.136;4.500;2023-01-13T02:47:45;100233.34;;;8.87;79.85
72857;BME280;62742;52.136;4.500;2023-01-13T02:50:16;100243.09;;;8.78;80.17
72857;BME280;62742;52.136;4.500;2023-01-13T02:52:51;100251.81;;;8.77;80.75
72857;BME280;62742;52.136;4.500;2023-01-13T02:55:25;100256.28;;;8.72;81.71
72857;BME280;62742;52.136;4.500;2023-01-13T02:57:57;100253.66;;;8.72;82.42
72857;BME280;62742;52.136;4.500;2023-01-13T03:00:27;100254.38;;;8.82;82.39
72857;BME280;62742;52.136;4.500;2023-01-13T03:02:55;100241.19;;;8.87;82.41
72857;BME280;62742;52.136;4.500;2023-01-13T03:05:22;100248.97;;;8.90;82.44
72857;BME280;62742;52.136;4.500;2023-01-13T03:10:35;100259.66;;;8.79;82.67
72857;BME280;62742;52.136;4.500;2023-01-13T03:21:24;100236.22;;;8.71;80.31
72857;BME280;62742;52.136;4.500;2023-01-13T03:23:57;100221.34;;;8.73;79.85
72857;BME280;62742;52.136;4.500;2023-01-13T03:26:33;100218.66;;;8.78;79.16
72857;BME280;62742;52.136;4.500;2023-01-13T03:29:10;100229.19;;;8.73;78.97
72857;BME280;62742;52.136;4.500;2023-01-13T03:31:51;100227.97;;;8.43;80.29
72857;BME280;62742;52.136;4.500;2023-01-13T03:34:24;100219.31;;;8.36;80.64
72857;BME280;62742;52.136;4.500;2023-01-13T03:36:57;100219.94;;;8.52;79.23
72857;BME280;62742;52.136;4.500;2023-01-13T03:39:30;100215.63;;;8.51;78.56
72857;BME280;62742;52.136;4.500;2023-01-13T03:42:01;100222.72;;;8.45;79.31
72857;BME280;62742;52.136;4.500;2023-01-13T03:44:32;100213.06;;;8.47;79.26
72857;BME280;62742;52.136;4.500;2023-01-13T03:47:11;100220.09;;;8.41;79.69
72857;BME280;62742;52.136;4.500;2023-01-13T03:49:59;100212.44;;;8.32;80.41
72857;BME280;62742;52.136;4.500;2023-01-13T03:52:35;100222.78;;;8.37;79.74
72857;BME280;62742;52.136;4.500;2023-01-13T03:58:00;100236.63;;;8.48;80.39
72857;BME280;62742;52.136;4.500;2023-01-13T04:00:33;100222.72;;;8.45;81.04
72857;BME280;62742;52.136;4.500;2023-01-13T04:03:06;100220.88;;;8.50;81.12
72857;BME280;62742;52.136;4.500;2023-01-13T04:05:38;100229.31;;;8.66;79.95
72857;BME280;62742;52.136;4.500;2023-01-13T04:08:18;100218.72;;;8.73;78.84
72857;BME280;62742;52.136;4.500;2023-01-13T04:10:56;100233.72;;;8.64;79.26
72857;BME280;62742;52.136;4.500;2023-01-13T04:13:30;100232.03;;;8.63;78.97
72857;BME280;62742;52.136;4.500;2023-01-13T04:16:01;100234.00;;;8.48;80.16
72857;BME280;62742;52.136;4.500;2023-01-13T04:18:31;100231.13;;;8.64;79.26
72857;BME280;62742;52.136;4.500;2023-01-13T04:21:00;100230.38;;;8.55;79.86
72857;BME280;62742;52.136;4.500;2023-01-13T04:23:27;100228.00;;;8.38;80.50
72857;BME280;62742;52.136;4.500;2023-01-13T04:25:54;100230.56;;;8.45;79.94
72857;BME280;62742;52.136;4.500;2023-01-13T04:28:20;100225.28;;;8.48;79.71
72857;BME280;62742;52.136;4.500;2023-01-13T04:30:47;100229.47;;;8.58;79.15
72857;BME280;62742;52.136;4.500;2023-01-13T04:33:14;100229.56;;;8.52;78.67
72857;BME280;62742;52.136;4.500;2023-01-13T04:35:42;100223.56;;;8.47;79.52
72857;BME280;62742;52.136;4.500;2023-01-13T04:38:13;100232.38;;;8.39;79.11
72857;BME280;62742;52.136;4.500;2023-01-13T04:40:42;100233.19;;;8.41;78.85
72857;BME280;62742;52.136;4.500;2023-01-13T04:43:08;100233.94;;;8.51;77.21
72857;BME280;62742;52.136;4.500;2023-01-13T04:45:35;100237.34;;;8.58;76.40
72857;BME280;62742;52.136;4.500;2023-01-13T04:48:01;100241.00;;;8.48;76.28
72857;BME280;62742;52.136;4.500;2023-01-13T04:50:28;100262.00;;;8.45;75.97
72857;BME280;62742;52.136;4.500;2023-01-13T04:52:54;100247.25;;;8.37;75.58
72857;BME280;62742;52.136;4.500;2023-01-13T04:55:21;100250.84;;;8.30;75.56
72857;BME280;62742;52.136;4.500;2023-01-13T04:57:48;100252.56;;;8.31;75.43
72857;BME280;62742;52.136;4.500;2023-01-13T05:00:15;100247.34;;;8.30;75.00
72857;BME280;62742;52.136;4.500;2023-01-13T05:02:44;100243.84;;;8.31;74.13
72857;BME280;62742;52.136;4.500;2023-01-13T05:05:10;100235.88;;;8.37;74.39
72857;BME280;62742;52.136;4.500;2023-01-13T05:07:36;100232.56;;;8.27;74.67
72857;BME280;62742;52.136;4.500;2023-01-13T05:10:03;100236.97;;;8.25;74.66
72857;BME280;62742;52.136;4.500;2023-01-13T05:12:29;100238.84;;;8.17;74.83
72857;BME280;62742;52.136;4.500;2023-01-13T05:15:14;100232.94;;;8.02;75.43
72857;BME280;62742;52.136;4.500;2023-01-13T05:17:59;100226.47;;;8.27;74.66
72857;BME280;62742;52.136;4.500;2023-01-13T05:20:26;100237.09;;;8.16;74.32
72857;BME280;62742;52.136;4.500;2023-01-13T05:22:52;100220.44;;;8.21;73.91
72857;BME280;62742;52.136;4.500;2023-01-13T05:25:38;100230.00;;;8.24;73.90
72857;BME280;62742;52.136;4.500;2023-01-13T05:28:06;100231.63;;;8.31;73.99
72857;BME280;62742;52.136;4.500;2023-01-13T05:30:37;100232.72;;;8.16;74.58
72857;BME280;62742;52.136;4.500;2023-01-13T05:33:08;100230.09;;;8.18;73.83
72857;BME280;62742;52.136;4.500;2023-01-13T05:35:42;100223.16;;;8.15;74.67
72857;BME280;62742;52.136;4.500;2023-01-13T05:38:10;100239.84;;;8.08;75.38
72857;BME280;62742;52.136;4.500;2023-01-13T05:40:37;100236.34;;;8.09;74.88
72857;BME280;62742;52.136;4.500;2023-01-13T05:43:24;100235.72;;;7.93;75.42
72857;BME280;62742;52.136;4.500;2023-01-13T05:48:18;100248.94;;;7.82;76.13
72857;BME280;62742;52.136;4.500;2023-01-13T05:50:46;100249.78;;;7.86;75.75
72857;BME280;62742;52.136;4.500;2023-01-13T05:53:14;100239.16;;;7.95;75.07
72857;BME280;62742;52.136;4.500;2023-01-13T05:55:42;100248.53;;;8.10;74.94
72857;BME280;62742;52.136;4.500;2023-01-13T05:58:10;100253.75;;;8.12;74.92
72857;BME280;62742;52.136;4.500;2023-01-13T06:00:37;100262.63;;;8.01;75.44
72857;BME280;62742;52.136;4.500;2023-01-13T06:03:04;100274.72;;;8.09;75.00
72857;BME280;62742;52.136;4.500;2023-01-13T06:05:30;100251.03;;;8.18;74.42
72857;BME280;62742;52.136;4.500;2023-01-13T06:07:58;100259.66;;;8.23;73.97
72857;BME280;62742;52.136;4.500;2023-01-13T06:10:25;100248.53;;;8.10;74.80
72857;BME280;62742;52.136;4.500;2023-01-13T06:12:52;100263.97;;;8.27;74.26
72857;BME280;62742;52.136;4.500;2023-01-13T06:15:18;100255.38;;;8.19;75.16
72857;BME280;62742;52.136;4.500;2023-01-13T06:17:45;100258.03;;;8.17;74.51
72857;BME280;62742;52.136;4.500;2023-01-13T06:20:12;100263.38;;;8.10;75.22
72857;BME280;62742;52.136;4.500;2023-01-13T06:22:40;100274.28;;;8.36;74.52
72857;BME280;62742;52.136;4.500;2023-01-13T06:25:10;100273.53;;;8.30;74.48
72857;BME280;62742;52.136;4.500;2023-01-13T06:27:44;100266.47;;;8.35;74.39
72857;BME280;62742;52.136;4.500;2023-01-13T06:30:11;100276.91;;;8.36;74.01
72857;BME280;62742;52.136;4.500;2023-01-13T06:32:39;100265.59;;;8.34;74.32
72857;BME280;62742;52.136;4.500;2023-01-13T06:35:10;100269.78;;;8.48;73.64
72857;BME280;62742;52.136;4.500;2023-01-13T06:37:41;100269.69;;;8.52;73.51
72857;BME280;62742;52.136;4.500;2023-01-13T06:40:10;100280.38;;;8.38;73.91
72857;BME280;62742;52.136;4.500;2023-01-13T06:42:39;100282.09;;;8.41;73.68
72857;BME280;62742;52.136;4.500;2023-01-13T06:45:24;100284.72;;;8.39;74.01
72857;BME280;62742;52.136;4.500;2023-01-13T06:47:52;100290.78;;;8.41;73.90
72857;BME280;62742;52.136;4.500;2023-01-13T06:50:19;100278.75;;;8.30;74.41
72857;BME280;62742;52.136;4.500;2023-01-13T06:52:45;100289.03;;;8.42;73.94
72857;BME280;62742;52.136;4.500;2023-01-13T06:55:12;100294.44;;;8.31;74.40
72857;BME280;62742;52.136;4.500;2023-01-13T06:57:51;100289.00;;;8.47;73.47
72857;BME280;62742;52.136;4.500;2023-01-13T07:00:19;100293.41;;;8.45;74.04
72857;BME280;62742;52.136;4.500;2023-01-13T07:02:46;100301.28;;;8.43;73.56
72857;BME280;62742;52.136;4.500;2023-01-13T07:05:13;100283.94;;;8.34;74.17
72857;BME280;62742;52.136;4.500;2023-01-13T07:07:40;100293.53;;;8.34;74.54
72857;BME280;62742;52.136;4.500;2023-01-13T07:10:07;100288.34;;;8.31;74.38
72857;BME280;62742;52.136;4.500;2023-01-13T07:12:38;100300.53;;;8.32;74.69
72857;BME280;62742;52.136;4.500;2023-01-13T07:15:26;100296.06;;;8.40;74.26
72857;BME280;62742;52.136;4.500;2023-01-13T07:17:52;100301.25;;;8.46;73.94
72857;BME280;62742;52.136;4.500;2023-01-13T07:20:18;100295.22;;;8.38;74.34
72857;BME280;62742;52.136;4.500;2023-01-13T07:22:45;100304.78;;;8.40;74.08
72857;BME280;62742;52.136;4.500;2023-01-13T07:25:11;100295.19;;;8.41;73.81
72857;BME280;62742;52.136;4.500;2023-01-13T07:27:37;100290.81;;;8.40;74.13
72857;BME280;62742;52.136;4.500;2023-01-13T07:30:04;100302.91;;;8.50;73.53
72857;BME280;62742;52.136;4.500;2023-01-13T07:32:31;100303.84;;;8.48;74.25
72857;BME280;62742;52.136;4.500;2023-01-13T07:34:58;100313.47;;;8.46;74.55
72857;BME280;62742;52.136;4.500;2023-01-13T07:37:33;100312.59;;;8.43;75.16
72857;BME280;62742;52.136;4.500;2023-01-13T07:40:01;100300.31;;;8.49;76.03
72857;BME280;62742;52.136;4.500;2023-01-13T07:42:31;100317.97;;;8.33;77.09
72857;BME280;62742;52.136;4.500;2023-01-13T07:45:16;100320.59;;;8.34;76.63
72857;BME280;62742;52.136;4.500;2023-01-13T07:47:42;100308.28;;;8.39;77.04
72857;BME280;62742;52.136;4.500;2023-01-13T07:50:08;100319.81;;;8.28;77.30
72857;BME280;62742;52.136;4.500;2023-01-13T07:52:35;100329.38;;;8.30;76.75
72857;BME280;62742;52.136;4.500;2023-01-13T07:55:01;100341.56;;;8.31;77.01
72857;BME280;62742;52.136;4.500;2023-01-13T07:57:28;100333.66;;;8.36;76.91
72857;BME280;62742;52.136;4.500;2023-01-13T07:59:54;100335.44;;;8.32;78.42
72857;BME280;62742;52.136;4.500;2023-01-13T08:02:20;100346.91;;;8.23;79.36
72857;BME280;62742;52.136;4.500;2023-01-13T08:04:47;100334.84;;;8.15;81.05
72857;BME280;62742;52.136;4.500;2023-01-13T08:07:13;100342.78;;;8.07;82.80
72857;BME280;62742;52.136;4.500;2023-01-13T08:09:39;100355.84;;;8.09;82.52
72857;BME280;62742;52.136;4.500;2023-01-13T08:12:05;100355.84;;;8.09;83.74
72857;BME280;62742;52.136;4.500;2023-01-13T08:14:50;100365.66;;;7.91;84.24
72857;BME280;62742;52.136;4.500;2023-01-13T08:17:18;100369.31;;;7.78;84.55
72857;BME280;62742;52.136;4.500;2023-01-13T08:19:45;100365.75;;;7.82;83.63
72857;BME280;62742;52.136;4.500;2023-01-13T08:22:11;100363.09;;;7.88;84.06
72857;BME280;62742;52.136;4.500;2023-01-13T08:24:37;100362.28;;;7.81;83.78
72857;BME280;62742;52.136;4.500;2023-01-13T08:27:03;100368.38;;;7.82;84.02
72857;BME280;62742;52.136;4.500;2023-01-13T08:29:30;100366.59;;;7.84;83.98
72857;BME280;62742;52.136;4.500;2023-01-13T08:31:56;100372.59;;;7.94;83.72
72857;BME280;62742;52.136;4.500;2023-01-13T08:34:22;100375.09;;;8.04;82.38
72857;BME280;62742;52.136;4.500;2023-01-13T08:36:49;100376.72;;;8.15;81.73
72857;BME280;62742;52.136;4.500;2023-01-13T08:39:15;100380.22;;;8.11;81.46
72857;BME280;62742;52.136;4.500;2023-01-13T08:41:43;100389.88;;;8.05;81.84
72857;BME280;62742;52.136;4.500;2023-01-13T08:44:22;100401.06;;;8.20;81.07
72857;BME280;62742;52.136;4.500;2023-01-13T08:46:50;100391.63;;;8.07;81.67
72857;BME280;62742;52.136;4.500;2023-01-13T08:49:17;100399.47;;;8.07;81.63
72857;BME280;62742;52.136;4.500;2023-01-13T08:51:44;100395.97;;;8.08;81.66
72857;BME280;62742;52.136;4.500;2023-01-13T08:54:10;100408.75;;;8.32;80.70
72857;BME280;62742;52.136;4.500;2023-01-13T08:56:37;100400.00;;;8.32;79.86
72857;BME280;62742;52.136;4.500;2023-01-13T08:59:03;100401.75;;;8.33;80.23
72857;BME280;62742;52.136;4.500;2023-01-13T09:01:29;100400.78;;;8.40;79.89
72857;BME280;62742;52.136;4.500;2023-01-13T09:03:56;100412.09;;;8.43;80.23
72857;BME280;62742;52.136;4.500;2023-01-13T09:06:23;100402.31;;;8.58;79.26
72857;BME280;62742;52.136;4.500;2023-01-13T09:08:49;100415.47;;;8.52;78.49
72857;BME280;62742;52.136;4.500;2023-01-13T09:11:19;100429.16;;;8.71;78.03
72857;BME280;62742;52.136;4.500;2023-01-13T09:14:09;100419.63;;;8.68;77.73
72857;BME280;62742;52.136;4.500;2023-01-13T09:16:35;100413.75;;;8.51;77.94
72857;BME280;62742;52.136;4.500;2023-01-13T09:19:01;100423.34;;;8.52;78.27
72857;BME280;62742;52.136;4.500;2023-01-13T09:21:28;100425.91;;;8.56;77.37
72857;BME280;62742;52.136;4.500;2023-01-13T09:23:54;100449.31;;;8.66;77.94
72857;BME280;62742;52.136;4.500;2023-01-13T09:26:20;100440.75;;;8.56;77.89
72857;BME280;62742;52.136;4.500;2023-01-13T09:28:46;100440.75;;;8.56;77.85
72857;BME280;62742;52.136;4.500;2023-01-13T09:31:12;100445.00;;;8.65;78.01
72857;BME280;62742;52.136;4.500;2023-01-13T09:33:39;100458.09;;;8.63;77.85
72857;BME280;62742;52.136;4.500;2023-01-13T09:36:23;100434.59;;;8.57;77.72
72857;BME280;62742;52.136;4.500;2023-01-13T09:38:50;100462.66;;;8.49;78.27
72857;BME280;62742;52.136;4.500;2023-01-13T09:41:18;100455.44;;;8.66;76.47
72857;BME280;62742;52.136;4.500;2023-01-13T09:44:04;100456.31;;;8.65;75.36
72857;BME280;62742;52.136;4.500;2023-01-13T09:46:41;100463.19;;;8.74;75.02
72857;BME280;62742;52.136;4.500;2023-01-13T09:49:20;100469.25;;;8.76;74.76
72857;BME280;62742;52.136;4.500;2023-01-13T09:51:57;100478.91;;;8.72;74.29
72857;BME280;62742;52.136;4.500;2023-01-13T09:57:26;100478.91;;;8.74;75.26
72857;BME280;62742;52.136;4.500;2023-01-13T09:59:56;100486.69;;;8.78;75.20
72857;BME280;62742;52.136;4.500;2023-01-13T10:02:25;100488.53;;;8.72;74.57
72857;BME280;62742;52.136;4.500;2023-01-13T10:08:39;100487.53;;;8.80;74.64
72857;BME280;62742;52.136;4.500;2023-01-13T10:11:00;100495.53;;;8.71;74.54
72857;BME280;62742;52.136;4.500;2023-01-13T10:13:47;100495.56;;;8.70;74.34
72857;BME280;62742;52.136;4.500;2023-01-13T10:16:40;100499.09;;;8.64;75.68
72857;BME280;62742;52.136;4.500;2023-01-13T10:22:04;100503.41;;;8.71;74.93
72857;BME280;62742;52.136;4.500;2023-01-13T10:32:56;100528.69;;;8.72;75.53
72857;BME280;62742;52.136;4.500;2023-01-13T10:38:23;100546.97;;;8.78;75.72
72857;BME280;62742;52.136;4.500;2023-01-13T10:41:00;100553.97;;;8.76;75.82
72857;BME280;62742;52.136;4.500;2023-01-13T10:43:28;100547.00;;;8.75;75.29
72857;BME280;62742;52.136;4.500;2023-01-13T10:46:00;100556.59;;;8.76;75.22
72857;BME280;62742;52.136;4.500;2023-01-13T10:48:40;100552.81;;;8.97;75.01
72857;BME280;62742;52.136;4.500;2023-01-13T10:51:09;100563.38;;;8.90;74.78
72857;BME280;62742;52.136;4.500;2023-01-13T10:53:43;100566.91;;;8.89;75.18
72857;BME280;62742;52.136;4.500;2023-01-13T10:56:18;100567.59;;;9.00;74.54
72857;BME280;62742;52.136;4.500;2023-01-13T10:58:46;100559.69;;;9.05;74.26
72857;BME280;62742;52.136;4.500;2023-01-13T11:01:23;100573.78;;;8.97;75.41
72857;BME280;62742;52.136;4.500;2023-01-13T11:03:55;100570.16;;;9.06;75.53
72857;BME280;62742;52.136;4.500;2023-01-13T11:06:23;100578.78;;;9.14;75.11
72857;BME280;62742;52.136;4.500;2023-01-13T11:08:53;100576.03;;;9.24;74.64
72857;BME280;62742;52.136;4.500;2023-01-13T11:17:17;100592.63;;;9.24;75.14
72857;BME280;62742;52.136;4.500;2023-01-13T11:19:59;100600.47;;;9.26;74.30
72857;BME280;62742;52.136;4.500;2023-01-13T11:22:44;100604.81;;;9.27;73.96
72857;BME280;62742;52.136;4.500;2023-01-13T11:25:24;100603.09;;;9.26;72.85
72857;BME280;62742;52.136;4.500;2023-01-13T11:27:59;100601.41;;;9.20;74.74
72857;BME280;62742;52.136;4.500;2023-01-13T11:30:41;100602.13;;;9.33;73.51
72857;BME280;62742;52.136;4.500;2023-01-13T11:38:30;100604.75;;;9.31;74.30
72857;BME280;62742;52.136;4.500;2023-01-13T11:46:35;100612.44;;;9.45;72.62
72857;BME280;62742;52.136;4.500;2023-01-13T11:49:02;100619.47;;;9.43;72.08
72857;BME280;62742;52.136;4.500;2023-01-13T11:51:32;100622.06;;;9.45;72.93
72857;BME280;62742;52.136;4.500;2023-01-13T11:54:13;100634.25;;;9.46;72.23
72857;BME280;62742;52.136;4.500;2023-01-13T12:05:38;100647.41;;;9.43;72.53
72857;BME280;62742;52.136;4.500;2023-01-13T12:08:17;100636.84;;;9.49;73.30
72857;BME280;62742;52.136;4.500;2023-01-13T12:27:48;100666.78;;;9.34;72.63
72857;BME280;62742;52.136;4.500;2023-01-13T12:30:47;100675.50;;;9.36;72.20
72857;BME280;62742;52.136;4.500;2023-01-13T12:44:01;100692.09;;;9.38;72.37
72857;BME280;62742;52.136;4.500;2023-01-13T12:46:47;100691.16;;;9.42;72.47
72857;BME280;62742;52.136;4.500;2023-01-13T12:52:12;100699.53;;;9.69;72.38
72857;BME280;62742;52.136;4.500;2023-01-13T12:59:44;100689.09;;;9.63;72.31
72857;BME280;62742;52.136;4.500;2023-01-13T13:02:35;100701.31;;;9.67;71.72
72857;BME280;62742;52.136;4.500;2023-01-13T13:07:41;100727.78;;;9.48;72.05
72857;BME280;62742;52.136;4.500;2023-01-13T13:12:56;100731.88;;;9.69;72.02
72857;BME280;62742;52.136;4.500;2023-01-13T13:15:47;100757.31;;;9.63;72.71
72857;BME280;62742;52.136;4.500;2023-01-13T13:18:19;100740.75;;;9.59;72.75
72857;BME280;62742;52.136;4.500;2023-01-13T13:20:53;100761.81;;;9.53;72.38
72857;BME280;62742;52.136;4.500;2023-01-13T13:24:07;100745.31;;;9.46;73.25
72857;BME280;62742;52.136;4.500;2023-01-13T13:40:40;100766.41;;;9.34;73.94
72857;BME280;62742;52.136;4.500;2023-01-13T13:43:28;100752.56;;;9.26;74.31
72857;BME280;62742;52.136;4.500;2023-01-13T13:46:22;100773.47;;;9.27;73.83
72857;BME280;62742;52.136;4.500;2023-01-13T13:49:08;100783.09;;;9.27;73.67
72857;BME280;62742;52.136;4.500;2023-01-13T13:51:37;100788.38;;;9.24;74.11
72857;BME280;62742;52.136;4.500;2023-01-13T13:54:17;100807.63;;;9.24;74.80
72857;BME280;62742;52.136;4.500;2023-01-13T13:56:47;100806.78;;;9.21;74.81
72857;BME280;62742;52.136;4.500;2023-01-13T13:59:19;100810.28;;;9.20;75.17
72857;BME280;62742;52.136;4.500;2023-01-13T14:01:49;100826.88;;;9.20;75.11
72857;BME280;62742;52.136;4.500;2023-01-13T14:04:28;100832.03;;;9.31;74.58
72857;BME280;62742;52.136;4.500;2023-01-13T14:06:58;100839.09;;;9.24;74.83
72857;BME280;62742;52.136;4.500;2023-01-13T14:09:27;100850.41;;;9.29;74.11
72857;BME280;62742;52.136;4.500;2023-01-13T14:12:05;100859.09;;;9.33;74.26
72857;BME280;62742;52.136;4.500;2023-01-13T14:14:48;100853.97;;;9.21;74.51
72857;BME280;62742;52.136;4.500;2023-01-13T14:17:19;100871.56;;;9.09;73.98
72857;BME280;62742;52.136;4.500;2023-01-13T14:19:56;100868.03;;;9.12;74.18
72857;BME280;62742;52.136;4.500;2023-01-13T14:22:27;100864.56;;;9.08;74.44
72857;BME280;62742;52.136;4.500;2023-01-13T14:24:53;100865.53;;;8.98;74.11
72857;BME280;62742;52.136;4.500;2023-01-13T14:27:23;100868.97;;;9.05;75.06
72857;BME280;62742;52.136;4.500;2023-01-13T14:29:52;100866.28;;;9.12;74.28
72857;BME280;62742;52.136;4.500;2023-01-13T14:32:22;100869.72;;;9.19;74.49
72857;BME280;62742;52.136;4.500;2023-01-13T14:34:55;100864.38;;;9.27;74.01
72857;BME280;62742;52.136;4.500;2023-01-13T14:39:57;100886.38;;;9.10;74.73
72857;BME280;62742;52.136;4.500;2023-01-13T14:42:23;100892.38;;;9.25;73.48
72857;BME280;62742;52.136;4.500;2023-01-13T14:44:52;100888.09;;;9.16;73.92
72857;BME280;62742;52.136;4.500;2023-01-13T14:52:34;100901.06;;;9.30;73.74
72857;BME280;62742;52.136;4.500;2023-01-13T15:03:52;100922.91;;;9.29;74.04
72857;BME280;62742;52.136;4.500;2023-01-13T15:06:22;100912.56;;;9.12;74.43
72857;BME280;62742;52.136;4.500;2023-01-13T15:08:50;100916.09;;;9.11;75.05
72857;BME280;62742;52.136;4.500;2023-01-13T15:11:25;100931.69;;;9.26;74.80
72857;BME280;62742;52.136;4.500;2023-01-13T15:13:57;100931.81;;;9.14;75.35
72857;BME280;62742;52.136;4.500;2023-01-13T15:16:28;100937.97;;;9.07;74.63
72857;BME280;62742;52.136;4.500;2023-01-13T15:18:56;100941.50;;;9.04;75.30
72857;BME280;62742;52.136;4.500;2023-01-13T15:21:23;100951.88;;;9.16;74.04
72857;BME280;62742;52.136;4.500;2023-01-13T15:23:50;100975.53;;;9.09;74.89
72857;BME280;62742;52.136;4.500;2023-01-13T15:26:21;100958.06;;;9.06;74.35
72857;BME280;62742;52.136;4.500;2023-01-13T15:28:49;100964.09;;;9.19;74.11
72857;BME280;62742;52.136;4.500;2023-01-13T15:31:17;100981.56;;;9.18;74.63
72857;BME280;62742;52.136;4.500;2023-01-13T15:33:43;100978.06;;;9.23;74.15
72857;BME280;62742;52.136;4.500;2023-01-13T15:36:20;100979.91;;;9.08;74.96
72857;BME280;62742;52.136;4.500;2023-01-13T15:38:52;100990.38;;;9.11;74.28
72857;BME280;62742;52.136;4.500;2023-01-13T15:41:18;100995.63;;;9.07;75.22
72857;BME280;62742;52.136;4.500;2023-01-13T15:44:04;101011.34;;;9.08;75.32
72857;BME280;62742;52.136;4.500;2023-01-13T15:46:49;101009.56;;;9.13;74.97
72857;BME280;62742;52.136;4.500;2023-01-13T15:51:51;101021.00;;;9.02;75.95
72857;BME280;62742;52.136;4.500;2023-01-13T15:54:17;101026.28;;;8.97;76.42
72857;BME280;62742;52.136;4.500;2023-01-13T15:56:47;101022.75;;;9.04;75.99
72857;BME280;62742;52.136;4.500;2023-01-13T15:59:14;101020.06;;;9.10;76.31